This is the latest recevied weather packets stored in our database for station/object OE3UKW. If no packets are shown the sender has not sent any weather packets the latest 10 day(s).
| Time | Temp. | Humidity | Pressure | Rain* | Wind** | Luminosity | Snow |
|---|---|---|---|---|---|---|---|
| 1777794671 | 19.44° C | 32% | 1020.7 hPa | 0 mm | - | 621 W/m² | - |
| 1777794086 | 19.44° C | 32% | 1020.6 hPa | 0 mm | - | 595 W/m² | - |
| 1777793471 | 18.89° C | 33% | 1020.6 hPa | 0 mm | - | 574 W/m² | - |
| 1777792871 | 18.33° C | 32% | 1020.6 hPa | 0 mm | - | 548 W/m² | - |
| 1777792271 | 18.33° C | 32% | 1020.5 hPa | 0 mm | - | 524 W/m² | - |
| 1777791671 | 18.33° C | 34% | 1020.6 hPa | 0 mm | - | 496 W/m² | - |
| 1777791071 | 17.78° C | 34% | 1020.4 hPa | 0 mm | - | 471 W/m² | - |
| 1777790471 | 17.22° C | 37% | 1020.7 hPa | 0 mm | - | 434 W/m² | - |
| 1777789871 | 16.67° C | 40% | 1020.6 hPa | 0 mm | - | 358 W/m² | - |
| 1777789271 | 16.11° C | 41% | 1020.5 hPa | 0 mm | - | 242 W/m² | - |
| 1777788671 | 15.56° C | 42% | 1020.4 hPa | 0 mm | - | 244 W/m² | - |
| 1777788071 | 15° C | 45% | 1020.3 hPa | 0 mm | - | 264 W/m² | - |
| 1777787471 | 13.89° C | 50% | 1020.2 hPa | 0 mm | - | 243 W/m² | - |
| 1777786871 | 13.33° C | 53% | 1020.4 hPa | 0 mm | - | 207 W/m² | - |
| 1777786271 | 11.67° C | 56% | 1020.5 hPa | 0 mm | - | 223 W/m² | - |
| 1777785671 | 11.11° C | 58% | 1020.4 hPa | 0 mm | - | 215 W/m² | - |
| 1777785071 | 10° C | 61% | 1020.5 hPa | 0 mm | - | 185 W/m² | - |
| 1777784471 | 8.89° C | 66% | 1020.4 hPa | 0 mm | - | 143 W/m² | - |
| 1777783871 | 7.78° C | 69% | 1020.3 hPa | 0 mm | - | 104 W/m² | - |
| 1777783270 | 6.67° C | 70% | 1020.3 hPa | 0 mm | - | 93 W/m² | - |
| 1777782671 | 5.56° C | 70% | 1020.1 hPa | 0 mm | - | 74 W/m² | - |
| 1777782070 | 5° C | 69% | 1020.1 hPa | 0 mm | - | 53 W/m² | - |
| 1777781470 | 4.44° C | 69% | 1019.9 hPa | 0 mm | - | 33 W/m² | - |
| 1777780871 | 4.44° C | 68% | 1019.8 hPa | 0 mm | - | 16 W/m² | - |
| 1777780271 | 3.89° C | 68% | 1019.9 hPa | 0 mm | - | 11 W/m² | - |
* Rain latest hour (hover to see other rain measurements)
** Current wind speed in m/s (hover to see current wind gust speed)